sensor_id;sensor_type;location;lat;lon;timestamp;pressure;altitude;pressure_sealevel;temperature;humidity
43814;BME280;29669;55.706;37.656;2023-05-25T00:00:19;99942.59;;;17.13;nan
43814;BME280;29669;55.706;37.656;2023-05-25T00:02:51;99948.22;;;17.16;nan
43814;BME280;29669;55.706;37.656;2023-05-25T00:05:35;99939.75;;;17.14;nan
43814;BME280;29669;55.706;37.656;2023-05-25T00:08:22;99941.75;;;17.19;nan
43814;BME280;29669;55.706;37.656;2023-05-25T00:31:24;99938.75;;;17.09;nan
43814;BME280;29669;55.706;37.656;2023-05-25T00:33:54;99936.13;;;17.09;nan
43814;BME280;29669;55.706;37.656;2023-05-25T00:36:23;99937.53;;;17.05;nan
43814;BME280;29669;55.706;37.656;2023-05-25T00:38:54;99928.44;;;17.07;nan
43814;BME280;29669;55.706;37.656;2023-05-25T00:41:25;99910.69;;;17.16;nan
43814;BME280;29669;55.706;37.656;2023-05-25T00:43:59;99911.50;;;17.29;nan
43814;BME280;29669;55.706;37.656;2023-05-25T00:46:28;99915.13;;;17.35;nan
43814;BME280;29669;55.706;37.656;2023-05-25T00:49:23;99908.69;;;17.37;nan
43814;BME280;29669;55.706;37.656;2023-05-25T00:51:57;99917.13;;;17.39;nan
43814;BME280;29669;55.706;37.656;2023-05-25T01:19:37;99882.25;;;17.06;65.64
43814;BME280;29669;55.706;37.656;2023-05-25T01:22:36;99877.41;;;17.10;65.92
43814;BME280;29669;55.706;37.656;2023-05-25T01:25:26;99874.38;;;17.13;66.35
43814;BME280;29669;55.706;37.656;2023-05-25T01:28:34;99878.00;;;17.12;66.50
43814;BME280;29669;55.706;37.656;2023-05-25T01:32:21;99874.97;;;17.15;66.22
43814;BME280;29669;55.706;37.656;2023-05-25T01:35:21;99885.25;;;17.23;66.58
43814;BME280;29669;55.706;37.656;2023-05-25T01:39:00;99892.13;;;17.30;66.40
43814;BME280;29669;55.706;37.656;2023-05-25T01:41:40;99893.53;;;17.33;66.38
43814;BME280;29669;55.706;37.656;2023-05-25T01:44:17;99895.75;;;17.36;66.55
43814;BME280;29669;55.706;37.656;2023-05-25T01:47:01;99892.13;;;17.37;66.71
43814;BME280;29669;55.706;37.656;2023-05-25T01:49:48;99897.56;;;17.42;66.71
43814;BME280;29669;55.706;37.656;2023-05-25T01:52:39;99898.78;;;17.46;66.74
43814;BME280;29669;55.706;37.656;2023-05-25T01:55:38;99905.44;;;17.55;66.71
43814;BME280;29669;55.706;37.656;2023-05-25T01:58:14;99906.25;;;17.62;66.60
43814;BME280;29669;55.706;37.656;2023-05-25T02:00:48;99900.56;;;17.71;66.68
43814;BME280;29669;55.706;37.656;2023-05-25T02:03:29;99905.00;;;17.84;66.50
43814;BME280;29669;55.706;37.656;2023-05-25T02:07:38;99903.09;;;18.04;66.13
43814;BME280;29669;55.706;37.656;2023-05-25T02:11:24;99913.56;;;18.24;65.83
43814;BME280;29669;55.706;37.656;2023-05-25T02:14:39;99910.06;;;18.36;65.31
43814;BME280;29669;55.706;37.656;2023-05-25T02:17:10;99904.59;;;18.44;65.29
43814;BME280;29669;55.706;37.656;2023-05-25T02:19:39;99903.09;;;18.55;65.13
43814;BME280;29669;55.706;37.656;2023-05-25T02:22:13;99907.50;;;18.67;65.03
43814;BME280;29669;55.706;37.656;2023-05-25T02:25:24;99914.88;;;18.84;64.83
43814;BME280;29669;55.706;37.656;2023-05-25T02:29:15;99919.78;;;19.05;64.35
43814;BME280;29669;55.706;37.656;2023-05-25T02:43:32;99919.13;;;19.83;62.95
43814;BME280;29669;55.706;37.656;2023-05-25T03:52:47;99925.16;;;21.62;56.96
43814;BME280;29669;55.706;37.656;2023-05-25T03:55:16;99935.16;;;21.71;56.72
43814;BME280;29669;55.706;37.656;2023-05-25T04:02:46;99913.31;;;22.10;55.51
43814;BME280;29669;55.706;37.656;2023-05-25T04:05:15;99918.59;;;22.10;55.48
43814;BME280;29669;55.706;37.656;2023-05-25T04:07:45;99914.81;;;22.06;55.35
43814;BME280;29669;55.706;37.656;2023-05-25T04:10:13;99916.31;;;22.02;55.67
43814;BME280;29669;55.706;37.656;2023-05-25T04:12:42;99915.84;;;22.05;55.51
43814;BME280;29669;55.706;37.656;2023-05-25T04:15:10;99905.16;;;22.00;55.22
43814;BME280;29669;55.706;37.656;2023-05-25T04:18:08;99902.97;;;21.97;55.29
43814;BME280;29669;55.706;37.656;2023-05-25T04:20:56;99908.50;;;21.96;55.09
43814;BME280;29669;55.706;37.656;2023-05-25T04:35:06;99906.19;;;21.99;55.29
43814;BME280;29669;55.706;37.656;2023-05-25T04:37:48;99905.16;;;22.00;54.97
43814;BME280;29669;55.706;37.656;2023-05-25T04:54:18;99913.94;;;22.69;53.45
43814;BME280;29669;55.706;37.656;2023-05-25T04:56:53;99918.66;;;22.67;53.31
43814;BME280;29669;55.706;37.656;2023-05-25T04:59:24;99913.81;;;22.64;53.68
43814;BME280;29669;55.706;37.656;2023-05-25T05:01:52;99909.03;;;22.77;53.51
43814;BME280;29669;55.706;37.656;2023-05-25T05:04:20;99919.56;;;22.89;53.32
43814;BME280;29669;55.706;37.656;2023-05-25T05:06:49;99921.91;;;23.02;52.88
43814;BME280;29669;55.706;37.656;2023-05-25T05:09:20;99909.81;;;23.06;52.62
43814;BME280;29669;55.706;37.656;2023-05-25T05:11:48;99916.16;;;23.05;52.65
43814;BME280;29669;55.706;37.656;2023-05-25T05:14:18;99917.75;;;23.06;52.56
43814;BME280;29669;55.706;37.656;2023-05-25T05:16:46;99916.16;;;23.05;52.42
43814;BME280;29669;55.706;37.656;2023-05-25T05:19:15;99916.06;;;23.00;52.74
43814;BME280;29669;55.706;37.656;2023-05-25T05:21:44;99921.44;;;23.05;52.58
43814;BME280;29669;55.706;37.656;2023-05-25T05:24:26;99917.25;;;23.09;52.34
43814;BME280;29669;55.706;37.656;2023-05-25T05:26:55;99926.31;;;23.13;52.47
43814;BME280;29669;55.706;37.656;2023-05-25T05:29:30;99918.94;;;23.15;52.43
43814;BME280;29669;55.706;37.656;2023-05-25T05:31:59;99913.75;;;23.20;52.21
43814;BME280;29669;55.706;37.656;2023-05-25T05:34:27;99917.94;;;23.32;52.05
43814;BME280;29669;55.706;37.656;2023-05-25T05:36:56;99917.69;;;23.51;51.85
43814;BME280;29669;55.706;37.656;2023-05-25T05:39:27;99918.53;;;23.73;51.74
43814;BME280;29669;55.706;37.656;2023-05-25T05:41:55;99911.59;;;23.88;51.20
43814;BME280;29669;55.706;37.656;2023-05-25T05:44:24;99914.28;;;24.10;51.13
43814;BME280;29669;55.706;37.656;2023-05-25T05:46:56;99917.16;;;24.30;50.66
43814;BME280;29669;55.706;37.656;2023-05-25T05:49:30;99913.81;;;24.40;50.38
43814;BME280;29669;55.706;37.656;2023-05-25T05:52:08;99920.94;;;24.61;50.18
43814;BME280;29669;55.706;37.656;2023-05-25T05:54:36;99913.16;;;24.76;49.71
43814;BME280;29669;55.706;37.656;2023-05-25T05:57:09;99908.47;;;24.83;49.21
43814;BME280;29669;55.706;37.656;2023-05-25T05:59:37;99906.44;;;24.95;49.04
43814;BME280;29669;55.706;37.656;2023-05-25T06:02:08;99908.63;;;25.03;48.98
43814;BME280;29669;55.706;37.656;2023-05-25T06:04:37;99906.22;;;25.01;48.65
43814;BME280;29669;55.706;37.656;2023-05-25T06:07:06;99907.53;;;24.99;48.69
43814;BME280;29669;55.706;37.656;2023-05-25T06:09:35;99906.25;;;24.75;48.74
43814;BME280;29669;55.706;37.656;2023-05-25T06:19:29;99908.56;;;24.45;nan
43814;BME280;29669;55.706;37.656;2023-05-25T06:21:57;99910.84;;;24.36;nan
43814;BME280;29669;55.706;37.656;2023-05-25T06:24:26;99900.50;;;24.35;nan
43814;BME280;29669;55.706;37.656;2023-05-25T06:26:53;99897.56;;;24.31;nan
43814;BME280;29669;55.706;37.656;2023-05-25T06:29:21;99910.13;;;24.19;nan
43814;BME280;29669;55.706;37.656;2023-05-25T06:31:50;99904.28;;;24.17;nan
43814;BME280;29669;55.706;37.656;2023-05-25T06:34:18;99896.81;;;24.14;nan
43814;BME280;29669;55.706;37.656;2023-05-25T06:36:46;99908.41;;;24.08;nan
43814;BME280;29669;55.706;37.656;2023-05-25T06:39:14;99913.91;;;24.01;nan
43814;BME280;29669;55.706;37.656;2023-05-25T06:41:43;99906.09;;;23.95;nan
43814;BME280;29669;55.706;37.656;2023-05-25T06:44:15;99903.13;;;23.91;nan
43814;BME280;29669;55.706;37.656;2023-05-25T06:46:46;99912.13;;;23.90;nan
43814;BME280;29669;55.706;37.656;2023-05-25T06:49:15;99908.44;;;23.91;nan
43814;BME280;29669;55.706;37.656;2023-05-25T06:51:43;99924.41;;;23.96;nan
43814;BME280;29669;55.706;37.656;2023-05-25T06:54:11;99927.63;;;23.98;nan
43814;BME280;29669;55.706;37.656;2023-05-25T06:56:41;99932.06;;;23.93;nan
43814;BME280;29669;55.706;37.656;2023-05-25T06:59:09;99931.38;;;23.81;nan
43814;BME280;29669;55.706;37.656;2023-05-25T07:01:37;99932.03;;;23.71;nan
43814;BME280;29669;55.706;37.656;2023-05-25T07:04:06;99925.31;;;23.64;nan
43814;BME280;29669;55.706;37.656;2023-05-25T07:06:33;99930.72;;;23.74;nan
43814;BME280;29669;55.706;37.656;2023-05-25T07:12:43;99924.22;;;24.19;nan
43814;BME280;29669;55.706;37.656;2023-05-25T07:15:49;99922.84;;;24.65;nan
43814;BME280;29669;55.706;37.656;2023-05-25T07:18:19;99915.66;;;24.87;nan
43814;BME280;29669;55.706;37.656;2023-05-25T07:20:48;99920.84;;;25.04;nan
43814;BME280;29669;55.706;37.656;2023-05-25T07:23:19;99918.81;;;25.16;nan
43814;BME280;29669;55.706;37.656;2023-05-25T07:25:47;99915.16;;;25.22;nan
43814;BME280;29669;55.706;37.656;2023-05-25T07:28:16;99922.91;;;25.29;nan
43814;BME280;29669;55.706;37.656;2023-05-25T07:30:53;99918.31;;;25.19;nan
43814;BME280;29669;55.706;37.656;2023-05-25T07:33:22;99915.53;;;25.04;nan
43814;BME280;29669;55.706;37.656;2023-05-25T07:35:50;99913.25;;;24.86;nan
43814;BME280;29669;55.706;37.656;2023-05-25T07:38:18;99917.19;;;24.78;nan
43814;BME280;29669;55.706;37.656;2023-05-25T07:40:47;99901.75;;;24.75;nan
43814;BME280;29669;55.706;37.656;2023-05-25T07:43:16;99912.97;;;24.82;nan
43814;BME280;29669;55.706;37.656;2023-05-25T07:45:44;99915.50;;;24.99;nan
43814;BME280;29669;55.706;37.656;2023-05-25T07:48:15;99906.84;;;25.13;nan
43814;BME280;29669;55.706;37.656;2023-05-25T07:50:43;99910.41;;;25.24;nan
43814;BME280;29669;55.706;37.656;2023-05-25T07:53:11;99907.78;;;25.34;nan
43814;BME280;29669;55.706;37.656;2023-05-25T07:55:40;99906.06;;;25.50;nan
43814;BME280;29669;55.706;37.656;2023-05-25T07:58:11;99897.91;;;25.66;nan
43814;BME280;29669;55.706;37.656;2023-05-25T08:00:39;99908.06;;;25.74;nan
43814;BME280;29669;55.706;37.656;2023-05-25T08:03:09;99915.84;;;25.81;nan
43814;BME280;29669;55.706;37.656;2023-05-25T08:05:38;99916.13;;;25.84;nan
43814;BME280;29669;55.706;37.656;2023-05-25T08:08:07;99914.81;;;25.87;nan
43814;BME280;29669;55.706;37.656;2023-05-25T08:10:36;99916.41;;;25.88;nan
43814;BME280;29669;55.706;37.656;2023-05-25T08:13:04;99906.50;;;25.78;nan
43814;BME280;29669;55.706;37.656;2023-05-25T08:15:32;99908.53;;;25.56;nan
43814;BME280;29669;55.706;37.656;2023-05-25T08:18:00;99905.28;;;25.49;nan
43814;BME280;29669;55.706;37.656;2023-05-25T08:20:31;99909.81;;;25.54;nan
43814;BME280;29669;55.706;37.656;2023-05-25T08:22:59;99909.56;;;25.55;nan
43814;BME280;29669;55.706;37.656;2023-05-25T08:25:29;99908.53;;;25.56;nan
43814;BME280;29669;55.706;37.656;2023-05-25T08:27:57;99906.16;;;25.65;nan
43814;BME280;29669;55.706;37.656;2023-05-25T08:30:26;99906.84;;;25.45;nan
43814;BME280;29669;55.706;37.656;2023-05-25T08:32:56;99906.09;;;25.18;nan
43814;BME280;29669;55.706;37.656;2023-05-25T08:35:24;99910.75;;;25.01;nan
43814;BME280;29669;55.706;37.656;2023-05-25T08:37:53;99911.41;;;24.86;nan
43814;BME280;29669;55.706;37.656;2023-05-25T08:40:22;99912.97;;;24.82;nan
43814;BME280;29669;55.706;37.656;2023-05-25T08:42:50;99911.06;;;24.78;nan
43814;BME280;29669;55.706;37.656;2023-05-25T08:45:18;99906.63;;;24.62;nan
43814;BME280;29669;55.706;37.656;2023-05-25T08:48:08;99912.28;;;24.44;nan
43814;BME280;29669;55.706;37.656;2023-05-25T08:50:39;99913.47;;;24.31;nan
43814;BME280;29669;55.706;37.656;2023-05-25T08:53:09;99925.75;;;24.15;nan
43814;BME280;29669;55.706;37.656;2023-05-25T08:55:39;99909.31;;;23.97;nan
43814;BME280;29669;55.706;37.656;2023-05-25T08:58:18;99917.31;;;23.80;nan
43814;BME280;29669;55.706;37.656;2023-05-25T09:00:54;99922.41;;;23.65;nan
43814;BME280;29669;55.706;37.656;2023-05-25T09:03:23;99913.69;;;23.48;nan
43814;BME280;29669;55.706;37.656;2023-05-25T09:05:51;99919.63;;;23.39;nan
43814;BME280;29669;55.706;37.656;2023-05-25T09:08:22;99913.25;;;23.23;nan
43814;BME280;29669;55.706;37.656;2023-05-25T09:10:51;99913.25;;;23.06;nan
43814;BME280;29669;55.706;37.656;2023-05-25T09:13:19;99922.56;;;23.09;nan
43814;BME280;29669;55.706;37.656;2023-05-25T09:15:49;99919.91;;;23.09;nan
43814;BME280;29669;55.706;37.656;2023-05-25T09:18:19;99918.16;;;23.14;nan
43814;BME280;29669;55.706;37.656;2023-05-25T09:20:51;99919.50;;;23.17;nan
43814;BME280;29669;55.706;37.656;2023-05-25T09:23:20;99916.47;;;23.25;nan
43814;BME280;29669;55.706;37.656;2023-05-25T09:25:49;99911.19;;;23.42;nan
43814;BME280;29669;55.706;37.656;2023-05-25T09:28:19;99906.91;;;23.57;nan
43814;BME280;29669;55.706;37.656;2023-05-25T09:30:51;99913.03;;;23.79;nan
43814;BME280;29669;55.706;37.656;2023-05-25T09:33:19;99906.78;;;23.85;nan
43814;BME280;29669;55.706;37.656;2023-05-25T09:35:48;99905.97;;;23.85;nan
43814;BME280;29669;55.706;37.656;2023-05-25T09:38:17;99912.56;;;23.82;nan
43814;BME280;29669;55.706;37.656;2023-05-25T09:40:47;99910.34;;;23.74;nan
43814;BME280;29669;55.706;37.656;2023-05-25T09:43:15;99907.97;;;23.56;nan
43814;BME280;29669;55.706;37.656;2023-05-25T09:45:52;99918.25;;;23.36;nan
43814;BME280;29669;55.706;37.656;2023-05-25T09:48:20;99913.03;;;23.08;nan
43814;BME280;29669;55.706;37.656;2023-05-25T09:50:50;99918.38;;;22.80;nan
43814;BME280;29669;55.706;37.656;2023-05-25T09:53:18;99917.44;;;22.58;nan
43814;BME280;29669;55.706;37.656;2023-05-25T09:55:50;99911.72;;;22.37;nan
43814;BME280;29669;55.706;37.656;2023-05-25T09:58:25;99909.84;;;22.21;nan
43814;BME280;29669;55.706;37.656;2023-05-25T10:00:54;99898.06;;;22.01;nan
43814;BME280;29669;55.706;37.656;2023-05-25T10:03:26;99906.44;;;21.86;nan
43814;BME280;29669;55.706;37.656;2023-05-25T10:05:54;99903.59;;;21.76;nan
43814;BME280;29669;55.706;37.656;2023-05-25T10:08:23;99898.88;;;21.55;nan
43814;BME280;29669;55.706;37.656;2023-05-25T10:10:55;99918.59;;;21.18;nan
43814;BME280;29669;55.706;37.656;2023-05-25T10:13:28;99910.38;;;20.85;nan
43814;BME280;29669;55.706;37.656;2023-05-25T10:15:58;99897.78;;;20.69;nan
43814;BME280;29669;55.706;37.656;2023-05-25T10:18:30;99906.28;;;20.59;nan
43814;BME280;29669;55.706;37.656;2023-05-25T10:21:40;99897.28;;;20.48;nan
43814;BME280;29669;55.706;37.656;2023-05-25T10:24:38;99896.22;;;20.20;nan
43814;BME280;29669;55.706;37.656;2023-05-25T10:27:38;99902.00;;;19.92;nan
43814;BME280;29669;55.706;37.656;2023-05-25T10:41:52;99898.44;;;20.23;nan
43814;BME280;29669;55.706;37.656;2023-05-25T10:44:56;99900.78;;;20.60;nan
43814;BME280;29669;55.706;37.656;2023-05-25T10:48:15;99902.78;;;20.88;nan
43814;BME280;29669;55.706;37.656;2023-05-25T10:50:49;99893.06;;;20.89;nan
43814;BME280;29669;55.706;37.656;2023-05-25T10:53:19;99895.19;;;21.10;nan
43814;BME280;29669;55.706;37.656;2023-05-25T10:56:07;99890.97;;;21.55;nan
43814;BME280;29669;55.706;37.656;2023-05-25T10:58:40;99896.53;;;22.05;nan
43814;BME280;29669;55.706;37.656;2023-05-25T11:01:12;99883.81;;;22.30;nan
43814;BME280;29669;55.706;37.656;2023-05-25T11:06:12;99881.75;;;22.60;nan
43814;BME280;29669;55.706;37.656;2023-05-25T11:08:58;99884.03;;;22.68;nan
43814;BME280;29669;55.706;37.656;2023-05-25T11:14:26;99854.03;;;22.34;nan
43814;BME280;29669;55.706;37.656;2023-05-25T11:19:43;99871.94;;;22.04;nan
43814;BME280;29669;55.706;37.656;2023-05-25T11:22:33;99866.44;;;21.94;nan
43814;BME280;29669;55.706;37.656;2023-05-25T11:25:41;99870.41;;;22.20;nan
43814;BME280;29669;55.706;37.656;2023-05-25T11:28:10;99854.19;;;22.44;nan
43814;BME280;29669;55.706;37.656;2023-05-25T11:30:39;99853.09;;;22.85;nan
43814;BME280;29669;55.706;37.656;2023-05-25T11:33:09;99845.22;;;23.40;nan
43814;BME280;29669;55.706;37.656;2023-05-25T11:35:38;99840.91;;;23.77;nan
43814;BME280;29669;55.706;37.656;2023-05-25T11:38:10;99834.72;;;24.10;nan
43814;BME280;29669;55.706;37.656;2023-05-25T11:41:04;99844.22;;;24.59;nan
43814;BME280;29669;55.706;37.656;2023-05-25T11:43:34;99831.66;;;24.76;nan
43814;BME280;29669;55.706;37.656;2023-05-25T11:46:09;99838.94;;;24.91;nan
43814;BME280;29669;55.706;37.656;2023-05-25T11:48:42;99826.69;;;24.85;nan
43814;BME280;29669;55.706;37.656;2023-05-25T11:51:11;99824.56;;;24.87;nan
43814;BME280;29669;55.706;37.656;2023-05-25T11:53:45;99824.38;;;24.93;nan
43814;BME280;29669;55.706;37.656;2023-05-25T11:56:14;99840.47;;;24.82;nan
43814;BME280;29669;55.706;37.656;2023-05-25T11:58:57;99831.50;;;24.61;nan
43814;BME280;29669;55.706;37.656;2023-05-25T12:01:25;99832.34;;;24.67;nan
43814;BME280;29669;55.706;37.656;2023-05-25T12:03:54;99831.84;;;24.70;nan
43814;BME280;29669;55.706;37.656;2023-05-25T12:06:31;99832.81;;;24.59;nan
43814;BME280;29669;55.706;37.656;2023-05-25T12:09:12;99832.03;;;24.58;nan
43814;BME280;29669;55.706;37.656;2023-05-25T12:11:40;99830.38;;;24.79;nan
43814;BME280;29669;55.706;37.656;2023-05-25T12:14:12;99827.88;;;25.04;nan
43814;BME280;29669;55.706;37.656;2023-05-25T12:16:41;99823.53;;;25.25;nan
43814;BME280;29669;55.706;37.656;2023-05-25T12:19:11;99820.91;;;25.35;nan
43814;BME280;29669;55.706;37.656;2023-05-25T12:21:40;99820.19;;;25.39;nan
43814;BME280;29669;55.706;37.656;2023-05-25T12:24:09;99818.78;;;25.32;nan
43814;BME280;29669;55.706;37.656;2023-05-25T12:26:51;99816.56;;;25.18;nan
43814;BME280;29669;55.706;37.656;2023-05-25T12:29:28;99820.63;;;24.63;nan
43814;BME280;29669;55.706;37.656;2023-05-25T12:32:02;99810.81;;;24.32;nan
43814;BME280;29669;55.706;37.656;2023-05-25T12:34:32;99816.69;;;24.39;nan
43814;BME280;29669;55.706;37.656;2023-05-25T12:37:00;99807.06;;;24.27;nan
43814;BME280;29669;55.706;37.656;2023-05-25T12:42:00;99808.41;;;24.03;nan
43814;BME280;29669;55.706;37.656;2023-05-25T12:44:33;99812.53;;;24.21;nan
43814;BME280;29669;55.706;37.656;2023-05-25T12:47:18;99807.94;;;24.70;nan
43814;BME280;29669;55.706;37.656;2023-05-25T12:49:50;99809.66;;;25.17;nan
43814;BME280;29669;55.706;37.656;2023-05-25T12:52:36;99819.09;;;25.40;nan
43814;BME280;29669;55.706;37.656;2023-05-25T12:55:29;99808.53;;;25.50;nan
43814;BME280;29669;55.706;37.656;2023-05-25T12:57:59;99805.38;;;25.58;nan
43814;BME280;29669;55.706;37.656;2023-05-25T13:00:36;99816.09;;;25.73;nan
43814;BME280;29669;55.706;37.656;2023-05-25T13:03:05;99815.09;;;26.04;nan
43814;BME280;29669;55.706;37.656;2023-05-25T13:05:37;99814.09;;;27.31;nan
43814;BME280;29669;55.706;37.656;2023-05-25T13:08:06;99808.03;;;28.77;nan
43814;BME280;29669;55.706;37.656;2023-05-25T13:10:36;99804.69;;;29.71;nan
43814;BME280;29669;55.706;37.656;2023-05-25T13:13:05;99812.06;;;29.79;nan
43814;BME280;29669;55.706;37.656;2023-05-25T13:15:34;99816.72;;;29.68;nan
43814;BME280;29669;55.706;37.656;2023-05-25T13:18:05;99819.13;;;30.12;nan
43814;BME280;29669;55.706;37.656;2023-05-25T13:20:34;99811.72;;;29.38;nan
43814;BME280;29669;55.706;37.656;2023-05-25T13:23:04;99818.31;;;28.21;nan
43814;BME280;29669;55.706;37.656;2023-05-25T13:25:33;99820.78;;;27.39;nan
43814;BME280;29669;55.706;37.656;2023-05-25T13:28:01;99820.00;;;26.38;nan
43814;BME280;29669;55.706;37.656;2023-05-25T13:30:29;99820.09;;;25.34;nan
43814;BME280;29669;55.706;37.656;2023-05-25T13:32:58;99820.78;;;24.51;nan
43814;BME280;29669;55.706;37.656;2023-05-25T13:35:26;99820.25;;;24.01;nan
43814;BME280;29669;55.706;37.656;2023-05-25T13:38:04;99822.47;;;23.66;nan
43814;BME280;29669;55.706;37.656;2023-05-25T13:40:33;99827.69;;;23.56;nan
43814;BME280;29669;55.706;37.656;2023-05-25T13:43:02;99827.16;;;23.59;nan
43814;BME280;29669;55.706;37.656;2023-05-25T13:45:30;99836.50;;;23.61;nan
43814;BME280;29669;55.706;37.656;2023-05-25T13:47:58;99832.22;;;23.39;nan
43814;BME280;29669;55.706;37.656;2023-05-25T13:50:28;99822.72;;;23.26;nan
43814;BME280;29669;55.706;37.656;2023-05-25T13:52:56;99826.56;;;23.18;nan
43814;BME280;29669;55.706;37.656;2023-05-25T13:55:24;99831.44;;;23.05;nan
43814;BME280;29669;55.706;37.656;2023-05-25T13:57:57;99824.34;;;22.94;nan
43814;BME280;29669;55.706;37.656;2023-05-25T14:00:27;99830.44;;;23.11;nan
43814;BME280;29669;55.706;37.656;2023-05-25T14:02:56;99825.06;;;23.39;nan
43814;BME280;29669;55.706;37.656;2023-05-25T14:05:26;99820.63;;;23.66;nan
43814;BME280;29669;55.706;37.656;2023-05-25T14:07:54;99815.41;;;23.71;nan
43814;BME280;29669;55.706;37.656;2023-05-25T14:10:24;99821.69;;;23.65;nan
43814;BME280;29669;55.706;37.656;2023-05-25T14:12:52;99810.41;;;23.53;nan
43814;BME280;29669;55.706;37.656;2023-05-25T14:15:22;99817.28;;;23.32;nan
43814;BME280;29669;55.706;37.656;2023-05-25T14:17:51;99811.09;;;23.27;nan
43814;BME280;29669;55.706;37.656;2023-05-25T14:20:21;99802.84;;;23.23;nan
43814;BME280;29669;55.706;37.656;2023-05-25T14:22:53;99803.59;;;23.02;nan
43814;BME280;29669;55.706;37.656;2023-05-25T14:25:29;99809.13;;;22.84;nan
43814;BME280;29669;55.706;37.656;2023-05-25T14:28:32;99797.81;;;22.89;nan
43814;BME280;29669;55.706;37.656;2023-05-25T14:31:05;99791.88;;;22.98;nan
43814;BME280;29669;55.706;37.656;2023-05-25T14:33:34;99790.88;;;23.21;nan
43814;BME280;29669;55.706;37.656;2023-05-25T14:36:02;99788.28;;;23.43;nan
43814;BME280;29669;55.706;37.656;2023-05-25T14:38:30;99784.34;;;23.45;nan
43814;BME280;29669;55.706;37.656;2023-05-25T14:40:59;99778.25;;;23.45;nan
43814;BME280;29669;55.706;37.656;2023-05-25T14:43:29;99785.16;;;23.29;nan
43814;BME280;29669;55.706;37.656;2023-05-25T14:45:58;99781.75;;;23.12;nan
43814;BME280;29669;55.706;37.656;2023-05-25T14:48:26;99774.28;;;23.09;nan
43814;BME280;29669;55.706;37.656;2023-05-25T14:50:55;99776.44;;;23.12;nan
43814;BME280;29669;55.706;37.656;2023-05-25T14:53:25;99768.09;;;23.20;nan
43814;BME280;29669;55.706;37.656;2023-05-25T14:55:53;99774.72;;;23.22;nan
43814;BME280;29669;55.706;37.656;2023-05-25T14:58:23;99772.84;;;23.18;nan
43814;BME280;29669;55.706;37.656;2023-05-25T15:00:51;99780.06;;;23.06;nan
43814;BME280;29669;55.706;37.656;2023-05-25T15:03:19;99779.09;;;23.12;nan
43814;BME280;29669;55.706;37.656;2023-05-25T15:05:47;99783.59;;;23.11;nan
43814;BME280;29669;55.706;37.656;2023-05-25T15:08:16;99795.00;;;23.12;nan
43814;BME280;29669;55.706;37.656;2023-05-25T15:10:44;99785.84;;;23.03;nan
43814;BME280;29669;55.706;37.656;2023-05-25T15:13:12;99795.16;;;23.05;nan
43814;BME280;29669;55.706;37.656;2023-05-25T15:15:40;99791.72;;;23.05;nan
43814;BME280;29669;55.706;37.656;2023-05-25T15:18:08;99792.75;;;23.04;nan
43814;BME280;29669;55.706;37.656;2023-05-25T15:20:36;99800.53;;;22.94;nan
43814;BME280;29669;55.706;37.656;2023-05-25T15:23:05;99795.81;;;22.63;nan
43814;BME280;29669;55.706;37.656;2023-05-25T15:25:33;99792.69;;;22.37;nan
43814;BME280;29669;55.706;37.656;2023-05-25T15:28:02;99800.63;;;22.37;nan
43814;BME280;29669;55.706;37.656;2023-05-25T15:30:30;99797.59;;;22.29;nan
43814;BME280;29669;55.706;37.656;2023-05-25T15:33:00;99796.22;;;22.26;nan
43814;BME280;29669;55.706;37.656;2023-05-25T15:35:28;99806.47;;;22.23;nan
43814;BME280;29669;55.706;37.656;2023-05-25T15:37:59;99794.50;;;22.20;nan
43814;BME280;29669;55.706;37.656;2023-05-25T15:40:28;99789.34;;;22.25;nan
43814;BME280;29669;55.706;37.656;2023-05-25T15:42:56;99796.09;;;22.33;nan
43814;BME280;29669;55.706;37.656;2023-05-25T15:45:24;99796.47;;;22.41;nan
43814;BME280;29669;55.706;37.656;2023-05-25T15:47:52;99794.97;;;22.45;nan
43814;BME280;29669;55.706;37.656;2023-05-25T15:50:22;99787.66;;;22.53;nan
43814;BME280;29669;55.706;37.656;2023-05-25T15:52:50;99790.19;;;22.76;nan
43814;BME280;29669;55.706;37.656;2023-05-25T15:55:18;99789.72;;;22.79;nan
43814;BME280;29669;55.706;37.656;2023-05-25T15:57:47;99784.88;;;22.92;nan
43814;BME280;29669;55.706;37.656;2023-05-25T16:00:16;99795.28;;;23.15;nan
43814;BME280;29669;55.706;37.656;2023-05-25T16:02:44;99784.03;;;23.25;nan
43814;BME280;29669;55.706;37.656;2023-05-25T16:05:12;99784.66;;;23.49;nan
43814;BME280;29669;55.706;37.656;2023-05-25T16:07:41;99775.16;;;23.96;nan
43814;BME280;29669;55.706;37.656;2023-05-25T16:10:09;99768.31;;;24.58;nan
43814;BME280;29669;55.706;37.656;2023-05-25T16:12:37;99764.47;;;25.17;nan
43814;BME280;29669;55.706;37.656;2023-05-25T16:15:06;99766.00;;;26.77;nan
43814;BME280;29669;55.706;37.656;2023-05-25T16:17:34;99759.00;;;28.63;nan
43814;BME280;29669;55.706;37.656;2023-05-25T16:20:02;99765.31;;;29.72;nan
43814;BME280;29669;55.706;37.656;2023-05-25T16:22:31;99767.28;;;30.73;nan
43814;BME280;29669;55.706;37.656;2023-05-25T16:24:59;99755.03;;;31.67;nan
43814;BME280;29669;55.706;37.656;2023-05-25T16:27:26;99763.56;;;32.18;nan
43814;BME280;29669;55.706;37.656;2023-05-25T16:29:55;99762.13;;;32.56;nan
43814;BME280;29669;55.706;37.656;2023-05-25T16:32:23;99753.84;;;32.75;nan
43814;BME280;29669;55.706;37.656;2023-05-25T16:34:50;99758.94;;;32.85;nan
43814;BME280;29669;55.706;37.656;2023-05-25T16:37:18;99744.16;;;32.96;nan
43814;BME280;29669;55.706;37.656;2023-05-25T16:39:47;99755.63;;;33.10;nan
43814;BME280;29669;55.706;37.656;2023-05-25T16:42:16;99764.59;;;32.97;nan
43814;BME280;29669;55.706;37.656;2023-05-25T16:44:47;99755.38;;;32.67;nan
43814;BME280;29669;55.706;37.656;2023-05-25T16:47:16;99760.28;;;31.85;nan
43814;BME280;29669;55.706;37.656;2023-05-25T16:49:48;99760.06;;;30.41;nan